createdAt,value
2019-01-19T00:01:57.579Z,50.90
2019-01-19T00:04:56.839Z,51.20
2019-01-19T00:08:19.322Z,51.20
2019-01-19T00:11:30.244Z,51.20
2019-01-19T00:14:06.818Z,51.10
2019-01-19T00:17:37.219Z,51.00
2019-01-19T00:20:36.343Z,51.00
2019-01-19T00:23:32.519Z,50.90
2019-01-19T00:27:08.798Z,51.00
2019-01-19T00:30:18.999Z,50.90
2019-01-19T00:33:16.107Z,50.90
2019-01-19T00:36:26.771Z,50.90
2019-01-19T00:41:41.891Z,50.80
2019-01-19T00:44:32.003Z,50.90
2019-01-19T00:47:15.642Z,50.70
2019-01-19T00:50:00.719Z,50.80
2019-01-19T00:52:53.647Z,50.70
2019-01-19T00:55:47.685Z,50.70
2019-01-19T00:58:41.983Z,50.70
2019-01-19T01:01:37.471Z,50.60
2019-01-19T01:04:16.834Z,50.60
2019-01-19T01:07:33.745Z,50.60
2019-01-19T01:10:56.399Z,50.60
2019-01-19T01:14:20.366Z,50.60
2019-01-19T01:17:11.038Z,50.60
2019-01-19T01:20:33.619Z,50.50
2019-01-19T01:23:33.115Z,50.60
2019-01-19T01:26:26.567Z,50.40
2019-01-19T01:29:40.913Z,50.50
2019-01-19T01:32:33.258Z,50.40
2019-01-19T01:35:39.143Z,50.50
2019-01-19T01:39:00.091Z,50.40
2019-01-19T01:41:59.763Z,50.40
2019-01-19T01:44:53.430Z,50.40
2019-01-19T01:47:54.246Z,50.40
2019-01-19T01:50:39.954Z,50.50
2019-01-19T01:53:30.002Z,51.10
2019-01-19T01:56:06.013Z,50.40
2019-01-19T01:59:21.407Z,50.40
2019-01-19T02:02:13.706Z,50.40
2019-01-19T02:05:18.131Z,50.30
2019-01-19T02:08:31.683Z,50.40
2019-01-19T02:11:31.299Z,50.30
2019-01-19T02:14:28.411Z,50.20
2019-01-19T02:17:26.994Z,50.30
2019-01-19T02:20:10.227Z,50.20
2019-01-19T02:23:23.627Z,50.20
2019-01-19T02:26:19.047Z,50.30
2019-01-19T02:29:33.474Z,50.20
2019-01-19T02:32:11.647Z,50.80
2019-01-19T02:35:26.460Z,50.80
2019-01-19T02:38:33.939Z,50.10
2019-01-19T02:41:36.826Z,50.10
2019-01-19T02:44:46.039Z,50.00
2019-01-19T02:48:27.879Z,50.00
2019-01-19T02:51:07.307Z,50.00
2019-01-19T02:54:05.454Z,50.00
2019-01-19T02:57:19.247Z,50.00
2019-01-19T03:00:22.983Z,49.90
2019-01-19T03:03:20.826Z,50.10
2019-01-19T03:06:29.320Z,50.00
2019-01-19T03:09:31.191Z,49.90
2019-01-19T03:12:45.531Z,49.90
2019-01-19T03:15:40.527Z,50.00
2019-01-19T03:18:21.708Z,49.90
2019-01-19T03:21:16.286Z,49.90
2019-01-19T03:24:17.947Z,49.90
2019-01-19T03:27:08.894Z,49.80
2019-01-19T03:30:28.492Z,49.80
2019-01-19T03:33:35.842Z,49.90
2019-01-19T03:37:00.088Z,50.00
2019-01-19T03:39:47.037Z,49.80
2019-01-19T03:42:50.876Z,49.90
2019-01-19T03:45:48.615Z,49.90
2019-01-19T03:48:38.084Z,49.90
2019-01-19T03:51:15.894Z,49.90
2019-01-19T03:54:06.227Z,49.90
2019-01-19T03:57:23.000Z,49.50
2019-01-19T04:00:31.347Z,49.80
2019-01-19T04:03:28.326Z,49.90
2019-01-19T04:06:39.459Z,49.80
2019-01-19T04:09:56.152Z,49.90
2019-01-19T04:13:22.882Z,49.80
2019-01-19T04:16:24.883Z,49.90
2019-01-19T04:19:38.382Z,49.80
2019-01-19T04:22:16.720Z,49.90
2019-01-19T04:25:16.664Z,49.90
2019-01-19T04:27:46.553Z,49.80
2019-01-19T04:30:16.487Z,49.80
2019-01-19T04:32:46.463Z,49.80
2019-01-19T04:35:16.588Z,49.80
2019-01-19T04:37:46.562Z,49.80
2019-01-19T04:40:16.551Z,49.90
2019-01-19T04:42:46.962Z,49.80
2019-01-19T04:45:16.981Z,49.80
2019-01-19T04:47:46.879Z,49.80
2019-01-19T04:50:17.149Z,49.70
2019-01-19T04:52:47.067Z,49.80
2019-01-19T04:55:16.967Z,49.60
2019-01-19T04:57:46.954Z,49.60
2019-01-19T05:00:18.552Z,49.70
2019-01-19T05:02:48.580Z,49.70
2019-01-19T05:05:18.888Z,49.60
2019-01-19T05:07:48.819Z,49.70
2019-01-19T05:10:18.811Z,49.60
2019-01-19T05:12:48.851Z,49.60
2019-01-19T05:15:20.738Z,49.60
2019-01-19T05:17:50.758Z,49.60
2019-01-19T05:20:20.747Z,49.50
2019-01-19T05:22:50.694Z,49.60
2019-01-19T05:25:20.683Z,49.60
2019-01-19T05:27:50.587Z,49.50
2019-01-19T05:30:21.617Z,49.60
2019-01-19T05:32:52.127Z,49.40
2019-01-19T05:35:22.146Z,49.50
2019-01-19T05:37:52.042Z,49.50
2019-01-19T05:40:22.019Z,49.50
2019-01-19T05:42:51.932Z,49.50
2019-01-19T05:45:21.987Z,49.50
2019-01-19T05:47:51.919Z,49.50
2019-01-19T05:50:23.374Z,49.50
2019-01-19T05:52:53.283Z,49.50
2019-01-19T05:55:23.464Z,49.60
2019-01-19T05:57:53.468Z,49.60
2019-01-19T06:00:35.094Z,49.60
2019-01-19T06:03:05.652Z,49.50
2019-01-19T06:05:36.316Z,49.40
2019-01-19T06:08:06.259Z,49.40
2019-01-19T06:10:36.196Z,49.20
2019-01-19T06:13:06.116Z,49.10
2019-01-19T06:15:36.457Z,49.10
2019-01-19T06:18:06.382Z,49.00
2019-01-19T06:20:36.293Z,48.90
2019-01-19T06:23:06.210Z,48.90
2019-01-19T06:25:36.150Z,49.00
2019-01-19T06:28:06.094Z,48.80
2019-01-19T06:30:35.997Z,48.80
2019-01-19T06:33:06.083Z,48.60
2019-01-19T06:35:36.387Z,48.70
2019-01-19T06:38:06.332Z,48.70
2019-01-19T06:40:37.383Z,48.50
2019-01-19T06:43:07.527Z,48.50
2019-01-19T06:45:37.487Z,48.50
2019-01-19T06:48:07.575Z,48.40
2019-01-19T06:50:37.532Z,48.50
2019-01-19T06:53:07.486Z,48.30
2019-01-19T06:55:37.923Z,48.40
2019-01-19T06:58:07.873Z,48.40
2019-01-19T07:00:37.786Z,48.20
2019-01-19T07:03:07.776Z,48.20
2019-01-19T07:05:37.795Z,48.50
2019-01-19T07:08:07.694Z,48.20
2019-01-19T07:10:37.646Z,48.20
2019-01-19T07:13:07.639Z,48.20
2019-01-19T07:15:37.799Z,48.10
2019-01-19T07:18:07.815Z,48.10
2019-01-19T07:20:37.834Z,48.20
2019-01-19T07:23:07.762Z,48.10
2019-01-19T07:25:37.791Z,48.00
2019-01-19T07:28:07.723Z,48.20
2019-01-19T07:30:37.719Z,48.10
2019-01-19T07:33:07.799Z,48.10
2019-01-19T07:35:37.755Z,48.10
2019-01-19T07:38:07.691Z,48.10
2019-01-19T07:40:37.643Z,48.20
2019-01-19T07:43:10.026Z,48.10
2019-01-19T07:45:39.974Z,48.00
2019-01-19T07:48:10.704Z,48.10
2019-01-19T07:50:41.908Z,48.20
2019-01-19T07:53:11.839Z,48.20
2019-01-19T07:55:41.854Z,48.20
2019-01-19T07:58:11.752Z,48.20
2019-01-19T08:00:41.718Z,48.20
2019-01-19T08:03:11.615Z,47.90
2019-01-19T08:05:41.568Z,48.50
2019-01-19T08:08:11.511Z,48.50
2019-01-19T08:10:41.543Z,48.70
2019-01-19T08:13:11.559Z,48.70
2019-01-19T08:15:42.055Z,48.70
2019-01-19T08:18:11.977Z,48.60
2019-01-19T08:20:41.903Z,48.70
2019-01-19T08:23:11.887Z,48.50
2019-01-19T08:25:41.838Z,48.60
2019-01-19T08:28:11.823Z,48.60
2019-01-19T08:30:41.724Z,48.60
2019-01-19T08:33:11.711Z,48.70
2019-01-19T08:35:42.861Z,48.70
2019-01-19T08:38:12.759Z,48.70
2019-01-19T08:40:42.758Z,48.80
2019-01-19T08:43:24.566Z,48.80
2019-01-19T08:45:54.490Z,48.90
2019-01-19T08:48:24.913Z,48.90
2019-01-19T08:50:55.140Z,49.00
2019-01-19T08:53:25.163Z,49.00
2019-01-19T08:55:55.335Z,49.10
2019-01-19T08:58:26.422Z,49.10
2019-01-19T09:00:56.346Z,49.10
2019-01-19T09:03:26.313Z,49.10
2019-01-19T09:05:56.247Z,49.10
2019-01-19T09:08:26.166Z,49.20
2019-01-19T09:10:56.143Z,49.20
2019-01-19T09:13:26.090Z,49.20
2019-01-19T09:16:01.263Z,48.70
2019-01-19T09:18:31.507Z,49.30
2019-01-19T09:21:01.459Z,49.30
2019-01-19T09:23:36.128Z,49.40
2019-01-19T09:26:06.139Z,49.40
2019-01-19T09:28:36.051Z,49.40
2019-01-19T09:31:06.083Z,49.50
2019-01-19T09:33:35.986Z,49.40
2019-01-19T09:36:05.983Z,49.40
2019-01-19T09:38:35.881Z,49.30
2019-01-19T09:41:05.835Z,49.30
2019-01-19T09:43:35.731Z,49.10
2019-01-19T09:46:05.647Z,49.20
2019-01-19T09:48:35.589Z,49.30
2019-01-19T09:51:05.511Z,49.30
2019-01-19T09:53:35.451Z,49.30
2019-01-19T09:56:05.926Z,49.40
2019-01-19T09:58:35.946Z,49.40
2019-01-19T10:01:06.135Z,49.30
2019-01-19T10:03:37.562Z,49.40
2019-01-19T10:06:07.503Z,49.40
2019-01-19T10:08:37.431Z,49.40
2019-01-19T10:11:07.819Z,49.50
2019-01-19T10:13:37.818Z,49.60
2019-01-19T10:16:07.874Z,49.60
2019-01-19T10:18:37.862Z,49.60
2019-01-19T10:21:08.184Z,50.30
2019-01-19T10:23:38.120Z,49.60
2019-01-19T10:26:08.079Z,49.70
2019-01-19T10:28:38.663Z,49.60
2019-01-19T10:31:08.590Z,49.70
2019-01-19T10:33:38.559Z,49.70
2019-01-19T10:36:08.570Z,49.70
2019-01-19T10:38:38.489Z,49.80
2019-01-19T10:41:08.399Z,49.70
2019-01-19T10:43:38.335Z,49.70
2019-01-19T10:46:08.315Z,49.70
2019-01-19T10:48:38.251Z,49.70
2019-01-19T10:51:08.235Z,49.80
2019-01-19T10:53:38.187Z,49.70
2019-01-19T10:56:08.148Z,49.80
2019-01-19T10:58:38.071Z,49.80
2019-01-19T13:26:24.632Z,64.60
2019-01-19T13:29:33.560Z,65.80
2019-01-19T13:32:41.196Z,66.80
2019-01-19T13:35:48.331Z,67.80
2019-01-19T13:54:17.544Z,71.40
2019-01-19T13:57:47.565Z,66.00
2019-01-19T14:00:57.929Z,67.00
2019-01-19T14:04:09.131Z,68.60
2019-01-19T14:06:54.451Z,70.00
2019-01-19T14:10:00.340Z,72.00
2019-01-19T14:13:07.018Z,71.50
2019-01-19T14:15:58.844Z,72.40
2019-01-19T14:18:50.978Z,73.20
2019-01-19T14:22:01.442Z,73.10
2019-01-19T14:24:40.911Z,73.60
2019-01-19T14:28:07.746Z,74.80
2019-01-19T14:31:27.333Z,75.30
2019-01-19T14:34:31.729Z,76.40
2019-01-19T14:37:55.711Z,75.80
2019-01-19T14:40:43.341Z,76.80
2019-01-19T14:43:48.247Z,76.50
2019-01-19T14:47:02.936Z,76.20
2019-01-19T14:50:11.764Z,76.90
2019-01-19T14:53:38.824Z,77.10
2019-01-19T14:56:34.495Z,76.30
2019-01-19T14:59:30.120Z,76.10
2019-01-19T15:02:48.093Z,77.60
2019-01-19T15:05:53.642Z,77.10
2019-01-19T15:08:54.342Z,77.50
2019-01-19T15:11:37.192Z,77.90
2019-01-19T15:14:51.481Z,77.70
2019-01-19T15:18:12.209Z,78.20
2019-01-19T15:21:29.608Z,78.00
2019-01-19T15:24:39.019Z,78.00
2019-01-19T15:27:49.864Z,78.00
2019-01-19T15:31:22.883Z,77.80
2019-01-19T15:34:46.660Z,77.90
2019-01-19T15:37:43.860Z,78.00
2019-01-19T15:40:40.051Z,78.20
2019-01-19T15:43:48.410Z,78.30
2019-01-19T15:46:55.754Z,78.40
2019-01-19T15:50:06.521Z,78.30
2019-01-19T15:53:05.887Z,78.50
2019-01-19T15:56:01.772Z,78.60
2019-01-19T15:59:01.331Z,79.10
2019-01-19T16:02:25.338Z,79.40
2019-01-19T16:05:12.251Z,80.00
2019-01-19T16:08:19.849Z,79.90
2019-01-19T16:11:19.890Z,79.40
2019-01-19T16:14:34.631Z,79.40
2019-01-19T16:17:35.778Z,79.30
2019-01-19T16:20:34.266Z,80.10
2019-01-19T16:23:37.377Z,80.70
2019-01-19T16:26:29.655Z,80.70
2019-01-19T16:29:37.188Z,81.20
2019-01-19T16:32:39.152Z,80.90
2019-01-19T16:35:41.329Z,80.40
2019-01-19T16:38:47.794Z,80.60
2019-01-19T16:42:11.578Z,80.20
2019-01-19T16:45:26.540Z,80.90
2019-01-19T16:48:22.772Z,81.50
2019-01-19T16:51:34.026Z,82.00
2019-01-19T16:54:39.195Z,82.60
2019-01-19T16:57:44.645Z,82.00
2019-01-19T17:00:47.720Z,82.70
2019-01-19T17:03:47.446Z,82.50
2019-01-19T17:06:53.097Z,83.20
2019-01-19T17:09:51.164Z,84.50
2019-01-19T17:13:08.188Z,82.70
2019-01-19T17:16:08.514Z,84.30
2019-01-19T17:19:00.652Z,84.00
2019-01-19T17:22:04.529Z,84.30
2019-01-19T17:25:07.241Z,86.10
2019-01-19T17:28:16.067Z,83.00
2019-01-19T17:31:20.285Z,84.30
2019-01-19T17:34:25.732Z,84.40
2019-01-19T17:37:05.539Z,84.70
2019-01-19T17:40:17.068Z,84.50
2019-01-19T17:43:18.417Z,84.90
2019-01-19T17:46:20.356Z,83.90
2019-01-19T17:49:19.309Z,83.00
2019-01-19T17:52:32.606Z,85.70
2019-01-19T17:55:32.571Z,84.70
2019-01-19T17:58:41.145Z,84.80
2019-01-19T18:02:05.134Z,87.00
2019-01-19T18:05:00.436Z,85.20
2019-01-19T18:07:49.501Z,84.30
2019-01-19T18:10:53.153Z,85.80
2019-01-19T18:13:51.995Z,84.70
2019-01-19T18:17:12.596Z,85.50
2019-01-19T18:20:24.903Z,84.50
2019-01-19T18:23:36.514Z,84.50
2019-01-19T18:26:38.871Z,84.80
2019-01-19T18:29:45.824Z,85.70
2019-01-19T18:33:03.389Z,86.70
2019-01-19T18:36:05.680Z,87.20
2019-01-19T18:39:17.245Z,87.00
2019-01-19T18:42:22.811Z,86.80
2019-01-19T18:45:10.324Z,88.70
2019-01-19T18:48:10.751Z,89.40
2019-01-19T18:51:24.537Z,87.60
2019-01-19T18:54:26.570Z,85.60
2019-01-19T18:57:56.586Z,85.10
2019-01-19T19:00:53.221Z,85.10
2019-01-19T19:04:01.945Z,86.10
2019-01-19T19:07:16.709Z,86.10
2019-01-19T19:10:37.417Z,87.60
2019-01-19T19:13:39.476Z,87.30
2019-01-19T19:16:31.205Z,89.20
2019-01-19T19:19:52.117Z,87.40
2019-01-19T19:22:57.049Z,86.40
2019-01-19T19:26:09.359Z,85.40
2019-01-19T19:29:11.834Z,85.00
2019-01-19T19:32:14.516Z,86.90
2019-01-19T19:35:08.494Z,88.20
2019-01-19T19:38:06.896Z,88.80
2019-01-19T19:41:25.530Z,87.70
2019-01-19T19:44:38.868Z,88.20
2019-01-19T19:47:32.124Z,88.30
2019-01-19T19:50:48.935Z,89.10
2019-01-19T19:53:19.741Z,88.30
2019-01-19T19:55:48.669Z,87.80
2019-01-19T19:58:19.416Z,86.20
2019-01-19T20:00:51.069Z,85.20
2019-01-19T20:03:21.838Z,85.50
2019-01-19T20:05:52.586Z,85.80
2019-01-19T20:08:23.273Z,87.10
2019-01-19T20:10:55.219Z,87.50
2019-01-19T20:13:25.976Z,88.50
2019-01-19T20:15:57.028Z,89.90
2019-01-19T20:18:28.016Z,87.60
2019-01-19T20:20:58.711Z,87.70
2019-01-19T20:23:29.526Z,87.20
2019-01-19T20:26:39.213Z,87.50
2019-01-19T20:29:15.412Z,87.30
2019-01-19T20:31:53.582Z,88.90
2019-01-19T20:34:29.052Z,86.70
2019-01-19T20:37:02.751Z,86.40
2019-01-19T20:39:33.586Z,85.60
2019-01-19T20:42:04.390Z,85.70
2019-01-19T20:44:35.188Z,85.20
2019-01-19T20:47:06.096Z,85.20
2019-01-19T20:49:37.880Z,85.60
2019-01-19T20:52:08.760Z,85.80
2019-01-19T20:54:39.441Z,85.80
2019-01-19T20:57:10.284Z,86.60
2019-01-19T20:59:41.008Z,87.70
2019-01-19T21:02:11.889Z,88.00
2019-01-19T21:04:42.713Z,86.10
2019-01-19T21:07:13.365Z,88.20
2019-01-19T21:09:45.085Z,89.70
2019-01-19T21:12:16.055Z,88.10
2019-01-19T21:14:46.538Z,89.20
2019-01-19T21:17:17.337Z,88.10
2019-01-19T21:19:48.241Z,88.10
2019-01-19T21:22:20.017Z,88.00
2019-01-19T21:24:50.697Z,87.90
2019-01-19T21:27:21.574Z,87.60
2019-01-19T21:29:52.404Z,87.90
2019-01-19T21:32:23.129Z,87.00
2019-01-19T21:34:53.713Z,87.10
2019-01-19T21:37:24.515Z,87.20
2019-01-19T21:39:55.194Z,86.70
2019-01-19T21:42:25.984Z,86.30
2019-01-19T21:44:56.567Z,89.10
2019-01-19T21:47:27.548Z,87.90
2019-01-19T21:49:58.229Z,89.70
2019-01-19T21:52:29.036Z,87.50
2019-01-19T21:54:59.825Z,86.40
2019-01-19T21:57:30.690Z,88.20
2019-01-19T22:00:01.591Z,88.00
2019-01-19T22:02:32.348Z,88.90
2019-01-19T22:05:03.073Z,89.20
2019-01-19T22:07:33.812Z,87.30
2019-01-19T22:10:05.028Z,85.90
2019-01-19T22:12:35.849Z,85.80
2019-01-19T22:15:09.237Z,87.00
2019-01-19T22:17:41.335Z,86.40
2019-01-19T22:20:12.995Z,86.60
2019-01-19T22:22:43.741Z,86.80
2019-01-19T22:25:14.545Z,88.00
2019-01-19T22:27:49.592Z,89.70
2019-01-19T22:30:22.250Z,87.60
2019-01-19T22:32:55.082Z,88.70
2019-01-19T22:35:28.641Z,90.20
2019-01-19T22:37:59.529Z,90.10
2019-01-19T22:40:30.325Z,89.50
2019-01-19T22:43:04.095Z,89.50
2019-01-19T22:45:34.838Z,89.50
2019-01-19T22:48:23.150Z,88.90
2019-01-19T22:50:53.920Z,89.20
2019-01-19T22:53:24.729Z,86.70
2019-01-19T22:55:55.584Z,85.70
2019-01-19T22:58:26.275Z,85.20
2019-01-19T23:01:22.638Z,85.60
2019-01-19T23:03:53.418Z,87.00
2019-01-19T23:06:24.297Z,87.50
2019-01-19T23:08:55.196Z,87.20
2019-01-19T23:11:33.669Z,87.70
2019-01-19T23:13:58.890Z,86.60
2019-01-19T23:16:29.628Z,85.80
2019-01-19T23:19:00.393Z,86.10
2019-01-19T23:21:31.184Z,87.60
2019-01-19T23:24:01.853Z,88.90
2019-01-19T23:26:33.402Z,88.10
2019-01-19T23:29:04.357Z,88.80
2019-01-19T23:31:35.117Z,88.20
2019-01-19T23:34:05.892Z,86.50
2019-01-19T23:36:36.648Z,87.90
2019-01-19T23:39:09.725Z,87.20
2019-01-19T23:41:40.384Z,89.40
2019-01-19T23:44:12.072Z,88.40
2019-01-19T23:46:43.055Z,89.10
2019-01-19T23:49:13.949Z,89.50
2019-01-19T23:51:44.875Z,88.00
2019-01-19T23:54:15.508Z,88.30
2019-01-19T23:56:46.315Z,87.10
2019-01-19T23:59:18.116Z,87.10
